Time;durP1;ratioP1;P1;durP2;ratioP2;P2;SDS_P1;SDS_P2;PMS_P1;PMS_P2;Temp;Humidity;BMP_temperature;BMP_pressure;BME280_temperature;BME280_humidity;BME280_pressure;Samples;Min_cycle;Max_cycle;Signal;HPM_P1;HPM_P2
2021/01/31 00:00:17;;;;;;;34.35;17.27;;;2.40;99.90;;;;;;5023659;28;20061;-75
2021/01/31 00:02:44;;;;;;;35.40;18.63;;;2.40;99.90;;;;;;5043557;28;20049;-74
2021/01/31 00:05:11;;;;;;;31.77;18.13;;;2.40;99.90;;;;;;5043572;28;20169;-76
2021/01/31 00:07:38;;;;;;;32.35;17.40;;;2.40;99.90;;;;;;5042487;28;20041;-75
2021/01/31 00:10:06;;;;;;;32.08;17.10;;;2.40;99.90;;;;;;5045134;28;20057;-74
2021/01/31 00:12:35;;;;;;;36.70;18.63;;;2.30;99.90;;;;;;5043974;28;20055;-75
2021/01/31 00:15:05;;;;;;;34.85;17.92;;;2.30;99.90;;;;;;5036960;28;20054;-76
2021/01/31 00:17:32;;;;;;;34.53;17.15;;;2.30;99.90;;;;;;5038374;28;20072;-75
2021/01/31 00:20:01;;;;;;;31.73;16.45;;;2.20;99.90;;;;;;5023878;28;20126;-75
2021/01/31 00:22:28;;;;;;;25.77;15.30;;;2.30;99.90;;;;;;5042024;28;20057;-76
2021/01/31 00:24:57;;;;;;;27.02;15.55;;;2.30;99.90;;;;;;5042245;28;20053;-74
2021/01/31 00:27:24;;;;;;;27.73;15.63;;;2.20;99.90;;;;;;5015869;28;20156;-75
2021/01/31 00:29:52;;;;;;;25.77;13.20;;;2.20;99.90;;;;;;5027422;28;20404;-76
2021/01/31 00:32:27;;;;;;;23.75;14.43;;;2.20;99.90;;;;;;5044544;28;20072;-76
2021/01/31 00:34:56;;;;;;;23.17;13.52;;;2.10;99.90;;;;;;5043228;28;20053;-74
2021/01/31 00:37:26;;;;;;;26.10;14.32;;;2.10;99.90;;;;;;5043351;28;20060;-77
2021/01/31 00:39:52;;;;;;;25.15;13.98;;;2.10;99.90;;;;;;5043659;28;20492;-76
2021/01/31 00:42:21;;;;;;;21.63;13.15;;;2.10;99.90;;;;;;5042979;28;20060;-76
2021/01/31 00:44:50;;;;;;;23.50;13.77;;;2.10;99.90;;;;;;5041292;28;20044;-78
2021/01/31 00:47:19;;;;;;;24.42;14.23;;;2.10;99.90;;;;;;5042111;28;20079;-76
2021/01/31 00:49:48;;;;;;;25.13;14.05;;;2.10;99.90;;;;;;5042316;28;20048;-75
2021/01/31 00:52:16;;;;;;;27.77;14.82;;;2.10;99.90;;;;;;5033639;28;20121;-76
2021/01/31 00:54:50;;;;;;;23.05;13.70;;;2.10;99.90;;;;;;5043198;28;20073;-74
2021/01/31 00:57:16;;;;;;;27.77;13.95;;;2.10;99.90;;;;;;5042572;28;20076;-74
2021/01/31 00:59:44;;;;;;;32.00;16.65;;;2.00;99.90;;;;;;5043072;28;20809;-75
2021/01/31 01:02:19;;;;;;;27.77;15.55;;;2.00;99.90;;;;;;5043017;28;20476;-75
2021/01/31 01:04:50;;;;;;;31.73;16.33;;;2.00;99.90;;;;;;5042449;28;20076;-75
2021/01/31 01:07:18;;;;;;;29.70;15.60;;;2.00;99.90;;;;;;5041869;28;20102;-77
2021/01/31 01:09:47;;;;;;;29.98;16.08;;;1.90;99.90;;;;;;5043303;28;20069;-74
2021/01/31 01:12:14;;;;;;;32.35;17.85;;;1.90;99.90;;;;;;5040185;28;20060;-75
2021/01/31 01:14:41;;;;;;;30.45;17.23;;;1.90;99.90;;;;;;5028106;28;20168;-75
2021/01/31 01:17:10;;;;;;;32.65;16.30;;;1.90;99.90;;;;;;5030522;28;20081;-76
2021/01/31 01:19:36;;;;;;;33.40;17.48;;;1.90;99.90;;;;;;5043825;28;20085;-75
2021/01/31 01:22:03;;;;;;;32.28;17.70;;;1.90;99.90;;;;;;5044515;28;20108;-76
2021/01/31 01:24:29;;;;;;;36.28;18.25;;;1.90;99.90;;;;;;5046953;28;20118;-76
2021/01/31 01:26:57;;;;;;;35.88;19.30;;;1.90;99.90;;;;;;5029556;28;20081;-76
2021/01/31 01:29:24;;;;;;;34.75;17.98;;;1.90;99.90;;;;;;5046036;28;20488;-76
2021/01/31 01:31:51;;;;;;;39.08;19.67;;;1.90;99.90;;;;;;5046370;28;20123;-74
2021/01/31 01:34:17;;;;;;;39.83;19.88;;;1.90;99.90;;;;;;5046476;28;20041;-75
2021/01/31 01:36:47;;;;;;;40.20;20.48;;;1.80;99.90;;;;;;5047309;28;20033;-75
2021/01/31 01:39:13;;;;;;;40.08;20.58;;;1.80;99.90;;;;;;5047418;28;20246;-76
2021/01/31 01:41:45;;;;;;;43.55;20.98;;;1.80;99.90;;;;;;5047492;28;20053;-76
2021/01/31 01:44:12;;;;;;;43.72;21.33;;;1.80;99.90;;;;;;5032066;28;20132;-75
2021/01/31 01:46:47;;;;;;;46.95;22.17;;;1.80;99.90;;;;;;5047446;28;20056;-75
2021/01/31 01:49:20;;;;;;;40.95;20.95;;;1.80;99.90;;;;;;5046177;28;20057;-76
2021/01/31 01:51:52;;;;;;;;;;;1.80;99.90;;;;;;5043435;28;20053;-77
2021/01/31 01:54:44;;;;;;;46.30;21.55;;;1.80;99.90;;;;;;5074253;28;20347;-76
2021/01/31 01:57:15;;;;;;;44.42;22.20;;;1.80;99.90;;;;;;5046006;28;20053;-75
2021/01/31 01:59:44;;;;;;;47.03;22.60;;;1.80;99.90;;;;;;5046302;28;20063;-75
2021/01/31 02:02:32;;;;;;;46.67;23.10;;;1.80;99.90;;;;;;5053038;28;20071;-76
2021/01/31 02:05:05;;;;;;;54.13;25.25;;;1.90;99.90;;;;;;5061479;28;20240;-76
2021/01/31 02:07:33;;;;;;;54.33;24.40;;;1.80;99.90;;;;;;5059545;28;20041;-76
2021/01/31 02:09:59;;;;;;;61.03;26.38;;;1.80;99.90;;;;;;5060075;28;20148;-77
2021/01/31 02:12:29;;;;;;;54.65;25.42;;;1.80;99.90;;;;;;5060438;28;20041;-77
2021/01/31 02:15:00;;;;;;;56.22;26.15;;;1.80;99.90;;;;;;5056787;28;20103;-77
2021/01/31 02:17:29;;;;;;;59.22;26.38;;;1.80;99.90;;;;;;5056658;28;20049;-78
2021/01/31 02:20:23;;;;;;;57.95;25.00;;;1.80;99.90;;;;;;5061737;28;20080;-78
2021/01/31 02:22:50;;;;;;;56.40;25.75;;;1.80;99.90;;;;;;5049953;28;20068;-75
2021/01/31 02:25:43;;;;;;;52.53;24.67;;;1.80;99.90;;;;;;5041972;28;20136;-75
2021/01/31 02:28:35;;;;;;;58.17;26.67;;;1.80;99.90;;;;;;5040404;28;20049;-76
2021/01/31 02:31:08;;;;;;;51.90;25.45;;;1.80;99.90;;;;;;5045535;28;20152;-75
2021/01/31 02:33:59;;;;;;;57.47;25.70;;;1.80;99.90;;;;;;5047440;28;20114;-75
2021/01/31 02:36:59;;;;;;;58.78;25.17;;;1.80;99.90;;;;;;5046048;28;20045;-76
2021/01/31 02:39:43;;;;;;;58.67;25.73;;;1.80;99.90;;;;;;5076970;28;20679;-76
2021/01/31 02:42:41;;;;;;;55.22;25.80;;;1.70;99.90;;;;;;5059071;28;20412;-77
2021/01/31 02:45:16;;;;;;;58.53;26.27;;;1.80;99.90;;;;;;5055266;28;20110;-76
2021/01/31 02:47:56;;;;;;;55.90;26.42;;;1.80;99.90;;;;;;5059041;28;20129;-76
2021/01/31 02:50:28;;;;;;;58.25;26.40;;;1.70;99.90;;;;;;5061183;28;20049;-76
2021/01/31 02:53:15;;;;;;;62.45;27.13;;;1.70;99.90;;;;;;5059641;28;20411;-76
2021/01/31 02:55:50;;;;;;;56.70;27.40;;;1.80;99.90;;;;;;5061023;28;20060;-77
2021/01/31 02:58:22;;;;;;;70.30;28.48;;;1.80;99.90;;;;;;5061136;28;20052;-75
2021/01/31 03:01:22;;;;;;;70.65;29.25;;;1.70;99.90;;;;;;5061836;28;20110;-76
2021/01/31 03:03:51;;;;;;;67.65;28.30;;;1.80;99.90;;;;;;5059932;28;20419;-77
2021/01/31 03:06:25;;;;;;;70.50;29.23;;;1.80;99.90;;;;;;5061922;28;20044;-76
2021/01/31 03:09:02;;;;;;;77.20;30.00;;;1.70;99.90;;;;;;5053126;28;20396;-75
2021/01/31 03:11:38;;;;;;;75.15;29.85;;;1.70;99.90;;;;;;5046177;28;20056;-76
2021/01/31 03:14:10;;;;;;;73.57;30.00;;;1.70;99.90;;;;;;5045717;28;20399;-74
2021/01/31 03:16:56;;;;;;;69.63;25.15;;;1.70;99.90;;;;;;5041805;28;20045;-75
2021/01/31 03:19:39;;;;;;;79.40;31.58;;;1.60;99.90;;;;;;5048349;28;20083;-76
2021/01/31 03:22:11;;;;;;;90.70;34.80;;;1.60;99.90;;;;;;5046588;28;20191;-75
2021/01/31 03:24:50;;;;;;;90.35;33.65;;;1.60;99.90;;;;;;5048687;28;20445;-74
2021/01/31 03:27:34;;;;;;;92.53;34.00;;;1.60;99.90;;;;;;5044974;28;20045;-76
2021/01/31 03:30:04;;;;;;;92.60;36.50;;;1.60;99.90;;;;;;5046718;28;20081;-74
2021/01/31 03:32:37;;;;;;;80.35;31.25;;;1.60;99.90;;;;;;5036755;28;20141;-74
2021/01/31 03:35:11;;;;;;;87.93;35.05;;;1.60;99.90;;;;;;5035974;28;20489;-75
2021/01/31 03:37:48;;;;;;;85.25;33.58;;;1.50;99.90;;;;;;5044177;28;20098;-74
2021/01/31 03:40:17;;;;;;;80.88;35.33;;;1.50;99.90;;;;;;5044374;28;20114;-74
2021/01/31 03:42:44;;;;;;;88.18;34.90;;;1.50;99.90;;;;;;5044832;28;20065;-76
2021/01/31 03:45:13;;;;;;;90.70;36.53;;;1.50;99.90;;;;;;5043127;28;20052;-74
2021/01/31 03:48:14;;;;;;;91.25;35.47;;;1.40;99.90;;;;;;5045685;28;20041;-73
2021/01/31 03:50:44;;;;;;;73.45;31.90;;;1.40;99.90;;;;;;5032872;28;20056;-75
2021/01/31 03:53:11;;;;;;;83.07;33.63;;;1.40;99.90;;;;;;5026352;28;20089;-75
2021/01/31 03:55:43;;;;;;;85.53;34.00;;;1.30;99.90;;;;;;5045436;28;20114;-75
2021/01/31 03:58:14;;;;;;;88.80;36.00;;;1.30;99.90;;;;;;5044176;28;20509;-74
2021/01/31 04:00:50;;;;;;;65.22;25.73;;;1.30;99.90;;;;;;5045087;28;20048;-75
2021/01/31 04:03:24;;;;;;;96.32;34.50;;;1.30;99.90;;;;;;5043719;28;20097;-76
2021/01/31 04:06:13;;;;;;;87.72;34.60;;;1.30;99.90;;;;;;5041984;28;20072;-75
2021/01/31 04:08:41;;;;;;;97.65;37.50;;;1.30;99.90;;;;;;5039042;28;20045;-74
2021/01/31 04:11:08;;;;;;;101.63;39.20;;;1.30;99.90;;;;;;5044829;28;20103;-75
2021/01/31 04:13:35;;;;;;;114.05;39.47;;;1.30;99.90;;;;;;5022522;28;20057;-75
2021/01/31 04:16:07;;;;;;;98.68;40.03;;;1.30;99.90;;;;;;5035146;28;20123;-74
2021/01/31 04:18:37;;;;;;;113.45;40.35;;;1.30;99.90;;;;;;5036774;28;20053;-75
2021/01/31 04:21:04;;;;;;;109.18;39.80;;;1.40;99.90;;;;;;5044273;28;20142;-75
2021/01/31 04:23:30;;;;;;;124.63;40.03;;;1.30;99.90;;;;;;5042300;28;20531;-75
2021/01/31 04:25:56;;;;;;;107.25;40.53;;;1.30;99.90;;;;;;5025627;28;20106;-76
2021/01/31 04:28:25;;;;;;;112.13;40.78;;;1.30;99.90;;;;;;5042425;28;20077;-76
2021/01/31 04:30:59;;;;;;;115.85;40.28;;;1.30;99.90;;;;;;5043403;28;20045;-75
2021/01/31 04:33:28;;;;;;;117.85;40.83;;;1.30;99.90;;;;;;5043343;28;20088;-78
2021/01/31 04:35:55;;;;;;;110.75;40.90;;;1.30;99.90;;;;;;5042745;28;20052;-75
2021/01/31 04:38:24;;;;;;;139.02;42.35;;;1.30;99.90;;;;;;5042179;28;20099;-74
2021/01/31 04:40:57;;;;;;;132.00;43.15;;;1.30;99.90;;;;;;5043662;28;20502;-75
2021/01/31 04:43:26;;;;;;;134.90;44.15;;;1.30;99.90;;;;;;5042444;28;20049;-76
2021/01/31 04:45:55;;;;;;;117.72;41.50;;;1.30;99.90;;;;;;5042966;28;20898;-74
2021/01/31 04:48:30;;;;;;;181.20;45.00;;;1.30;99.90;;;;;;5042228;28;20047;-76
2021/01/31 04:51:09;;;;;;;120.13;42.30;;;1.20;99.90;;;;;;5044256;28;20090;-74
2021/01/31 04:54:01;;;;;;;123.53;42.15;;;1.20;99.90;;;;;;5034410;28;20045;-74
2021/01/31 04:56:43;;;;;;;130.70;41.65;;;1.20;99.90;;;;;;5045292;28;20136;-75
2021/01/31 04:59:25;;;;;;;129.90;42.65;;;1.20;99.90;;;;;;5047073;28;20048;-75
2021/01/31 05:01:56;;;;;;;;;;;1.20;99.90;;;;;;5047784;28;20063;-75
2021/01/31 05:04:24;;;;;;;119.05;39.10;;;1.20;99.90;;;;;;5046285;28;20357;-75
2021/01/31 05:06:55;;;;;;;128.95;43.30;;;1.20;99.90;;;;;;5047624;28;20073;-75
2021/01/31 05:09:27;;;;;;;144.15;44.20;;;1.20;99.90;;;;;;5048458;28;20102;-75
2021/01/31 05:12:18;;;;;;;131.82;41.85;;;1.20;99.90;;;;;;5029749;28;20052;-75
2021/01/31 05:14:53;;;;;;;133.77;43.75;;;1.20;99.90;;;;;;5046575;28;20635;-74
2021/01/31 05:17:23;;;;;;;150.93;44.17;;;1.20;99.90;;;;;;5031632;28;20114;-75
2021/01/31 05:19:50;;;;;;;175.50;45.80;;;1.10;99.90;;;;;;5043645;28;20053;-75
2021/01/31 05:22:25;;;;;;;131.38;42.13;;;1.10;99.90;;;;;;5046874;28;20053;-75
2021/01/31 05:24:54;;;;;;;136.23;43.47;;;1.10;99.90;;;;;;5034344;28;20053;-74
2021/01/31 05:27:28;;;;;;;154.10;44.28;;;1.10;99.90;;;;;;5047210;28;20056;-75
2021/01/31 05:29:55;;;;;;;140.05;43.00;;;1.10;99.90;;;;;;5033486;28;20480;-75
2021/01/31 05:32:22;;;;;;;154.68;45.10;;;1.10;99.90;;;;;;5034256;28;20107;-77
2021/01/31 05:34:51;;;;;;;153.27;44.75;;;1.10;99.90;;;;;;5038826;28;20479;-75
2021/01/31 05:37:28;;;;;;;162.35;42.15;;;1.20;99.90;;;;;;5043805;28;20667;-75
2021/01/31 05:39:57;;;;;;;168.90;45.47;;;1.10;99.90;;;;;;5046342;28;20052;-75
2021/01/31 05:42:28;;;;;;;166.95;46.22;;;1.10;99.90;;;;;;5044634;28;20045;-76
2021/01/31 05:45:02;;;;;;;156.13;46.60;;;1.10;99.90;;;;;;5047151;28;20048;-74
2021/01/31 05:47:38;;;;;;;193.43;46.40;;;1.10;99.90;;;;;;5045634;28;20103;-75
2021/01/31 05:50:38;;;;;;;177.57;48.13;;;1.10;99.90;;;;;;5046103;28;20445;-75
2021/01/31 05:53:33;;;;;;;174.73;46.22;;;1.10;99.90;;;;;;5042960;28;20139;-75
2021/01/31 05:56:26;;;;;;;160.15;47.88;;;1.10;99.90;;;;;;5043473;28;20048;-76
2021/01/31 05:59:13;;;;;;;174.73;48.58;;;1.20;99.90;;;;;;5029058;28;20056;-77
2021/01/31 06:02:07;;;;;;;164.00;46.58;;;1.20;99.90;;;;;;5046795;28;20048;-77
2021/01/31 06:04:34;;;;;;;153.27;44.88;;;1.20;99.90;;;;;;5035164;28;20049;-75
2021/01/31 06:07:14;;;;;;;198.77;48.15;;;1.20;99.90;;;;;;5039191;28;20136;-75
2021/01/31 06:09:42;;;;;;;196.68;47.15;;;1.20;99.90;;;;;;5036268;28;20053;-75
2021/01/31 06:12:12;;;;;;;149.85;45.05;;;1.20;99.90;;;;;;5046130;28;20139;-75
2021/01/31 06:14:45;;;;;;;168.27;44.40;;;1.20;99.90;;;;;;5031600;28;20049;-75
2021/01/31 06:17:25;;;;;;;155.27;43.28;;;1.20;99.90;;;;;;5044849;28;20472;-76
2021/01/31 06:20:10;;;;;;;157.95;44.05;;;1.20;99.90;;;;;;5039020;28;20057;-75
2021/01/31 06:22:38;;;;;;;144.48;42.83;;;1.20;99.90;;;;;;5045358;28;20462;-77
2021/01/31 06:25:06;;;;;;;180.90;46.85;;;1.20;99.90;;;;;;5046960;28;20053;-73
2021/01/31 06:27:35;;;;;;;163.80;45.00;;;1.20;99.90;;;;;;5039639;28;20115;-75
2021/01/31 06:30:23;;;;;;;153.23;43.42;;;1.20;99.90;;;;;;5044956;28;20121;-75
2021/01/31 06:32:52;;;;;;;171.88;44.35;;;1.20;99.90;;;;;;5040363;28;20068;-74
2021/01/31 06:35:22;;;;;;;172.48;44.03;;;1.20;99.90;;;;;;5043476;28;20049;-77
2021/01/31 06:38:12;;;;;;;183.23;45.08;;;1.20;99.90;;;;;;5041428;28;20107;-77
2021/01/31 06:41:01;;;;;;;161.95;44.72;;;1.20;99.90;;;;;;5050034;28;20053;-76
2021/01/31 06:43:33;;;;;;;175.80;45.97;;;1.20;99.90;;;;;;5042096;28;20052;-77
2021/01/31 06:46:09;;;;;;;179.48;44.83;;;1.20;99.90;;;;;;5043091;28;20071;-76
2021/01/31 06:49:15;;;;;;;162.50;42.70;;;1.30;99.90;;;;;;5040773;28;20071;-76
2021/01/31 06:51:48;;;;;;;151.02;43.38;;;1.30;99.90;;;;;;5002698;28;20101;-76
2021/01/31 06:54:41;;;;;;;167.60;44.63;;;1.30;99.90;;;;;;5032430;28;20324;-74
2021/01/31 06:57:17;;;;;;;165.98;44.22;;;1.30;99.90;;;;;;5048197;28;20082;-75
2021/01/31 07:00:02;;;;;;;176.50;46.78;;;1.20;99.90;;;;;;5041737;28;20055;-75
2021/01/31 07:02:36;;;;;;;168.07;45.20;;;1.20;99.90;;;;;;5056630;28;20751;-74
2021/01/31 07:05:05;;;;;;;157.68;45.85;;;1.20;99.90;;;;;;5041313;28;20049;-75
2021/01/31 07:07:56;;;;;;;171.68;46.90;;;1.20;99.90;;;;;;5045235;28;20736;-75
2021/01/31 07:10:35;;;;;;;165.55;45.92;;;1.20;99.90;;;;;;5032058;28;20459;-75
2021/01/31 07:13:19;;;;;;;173.38;46.30;;;1.20;99.90;;;;;;5063688;28;20064;-75
2021/01/31 07:16:20;;;;;;;202.65;46.72;;;1.20;99.90;;;;;;5061054;28;20190;-75
2021/01/31 07:18:59;;;;;;;168.18;46.28;;;1.20;99.90;;;;;;5042473;28;20068;-75
2021/01/31 07:21:35;;;;;;;164.15;46.25;;;1.20;99.90;;;;;;5036806;28;20057;-76
2021/01/31 07:24:10;;;;;;;156.00;44.22;;;1.20;99.90;;;;;;5043540;28;20151;-75
2021/01/31 07:27:16;;;;;;;165.00;46.35;;;1.20;99.90;;;;;;5044500;28;20053;-75
2021/01/31 07:30:05;;;;;;;172.23;47.95;;;1.20;99.90;;;;;;5028681;28;20041;-78
2021/01/31 07:32:50;;;;;;;168.73;46.38;;;1.30;99.90;;;;;;5044766;28;20121;-79
2021/01/31 07:35:25;;;;;;;182.80;49.67;;;1.30;99.90;;;;;;5042774;28;20120;-79
2021/01/31 07:38:15;;;;;;;169.07;46.78;;;1.30;99.90;;;;;;5033964;28;20479;-76
2021/01/31 07:40:45;;;;;;;152.30;45.60;;;1.30;99.90;;;;;;5032133;28;20052;-75
2021/01/31 07:43:18;;;;;;;182.45;48.55;;;1.30;99.90;;;;;;5038488;28;20138;-75
2021/01/31 07:45:45;;;;;;;149.05;46.72;;;1.30;99.90;;;;;;5026894;28;20037;-75
2021/01/31 07:48:39;;;;;;;145.20;43.80;;;1.30;99.90;;;;;;5034956;28;20045;-75
2021/01/31 07:51:08;;;;;;;143.63;43.45;;;1.30;99.90;;;;;;5043014;28;20072;-75
2021/01/31 07:53:40;;;;;;;146.70;45.67;;;1.30;99.90;;;;;;5039168;28;20145;-75
2021/01/31 07:56:31;;;;;;;123.65;41.13;;;1.40;99.90;;;;;;5043782;28;20044;-75
2021/01/31 07:59:10;;;;;;;131.88;42.40;;;1.30;99.90;;;;;;5030490;28;20057;-74
2021/01/31 08:01:39;;;;;;;129.75;41.78;;;1.30;99.90;;;;;;5064873;28;20076;-74
2021/01/31 08:04:15;;;;;;;123.22;41.25;;;1.30;99.90;;;;;;5039616;28;20399;-74
2021/01/31 08:06:49;;;;;;;111.22;40.53;;;1.30;99.90;;;;;;5029239;28;20076;-76
2021/01/31 08:09:29;;;;;;;124.03;40.78;;;1.30;99.90;;;;;;5032472;28;20547;-74
2021/01/31 08:12:14;;;;;;;120.57;42.03;;;1.30;99.90;;;;;;5030871;28;20385;-77
2021/01/31 08:15:08;;;;;;;111.05;40.20;;;1.30;99.90;;;;;;5043056;28;20487;-74
2021/01/31 08:17:56;;;;;;;122.90;41.83;;;1.40;99.90;;;;;;5032098;28;20049;-74
2021/01/31 08:20:28;;;;;;;118.68;43.53;;;1.40;99.90;;;;;;5045198;28;20103;-75
2021/01/31 08:22:56;;;;;;;115.88;42.53;;;1.40;99.90;;;;;;5042172;28;20060;-74
2021/01/31 08:25:26;;;;;;;127.68;42.10;;;1.40;99.90;;;;;;5044926;28;20041;-75
2021/01/31 08:28:02;;;;;;;118.03;41.25;;;1.40;99.90;;;;;;5041575;28;20041;-76
2021/01/31 08:30:33;;;;;;;105.32;39.80;;;1.40;99.90;;;;;;5042921;28;20045;-75
2021/01/31 08:33:00;;;;;;;94.28;38.28;;;1.40;99.90;;;;;;5039337;28;20076;-75
2021/01/31 08:35:38;;;;;;;96.13;39.58;;;1.40;99.90;;;;;;5033531;28;20597;-75
2021/01/31 08:38:35;;;;;;;94.50;38.85;;;1.40;99.90;;;;;;5041016;28;20045;-75
2021/01/31 08:41:01;;;;;;;93.90;37.58;;;1.40;99.90;;;;;;5043994;28;20126;-75
2021/01/31 08:43:51;;;;;;;98.75;38.75;;;1.40;99.90;;;;;;5042256;28;20048;-76
2021/01/31 08:46:21;;;;;;;90.43;40.05;;;1.50;99.90;;;;;;5037341;28;20124;-75
2021/01/31 08:49:11;;;;;;;89.18;38.90;;;1.50;99.90;;;;;;5036479;28;20516;-74
2021/01/31 08:51:42;;;;;;;81.50;36.00;;;1.60;99.90;;;;;;5027284;28;20061;-74
2021/01/31 08:54:13;;;;;;;85.93;37.13;;;1.50;99.90;;;;;;5043168;28;20049;-74
2021/01/31 08:57:00;;;;;;;86.60;38.17;;;1.50;99.90;;;;;;5044251;28;20103;-75
2021/01/31 08:59:37;;;;;;;70.15;34.10;;;1.50;99.90;;;;;;5029428;28;20053;-75
2021/01/31 09:02:22;;;;;;;68.85;33.38;;;1.50;99.90;;;;;;5042693;28;20112;-74
2021/01/31 09:05:11;;;;;;;69.22;34.80;;;1.60;99.90;;;;;;5043143;28;20315;-74
2021/01/31 09:07:40;;;;;;;68.82;33.65;;;1.60;99.90;;;;;;5034381;28;20138;-74
2021/01/31 09:10:40;;;;;;;61.05;32.17;;;1.60;99.90;;;;;;5042158;28;20512;-75
2021/01/31 09:13:29;;;;;;;61.58;31.05;;;1.70;99.90;;;;;;5041397;28;20080;-74
2021/01/31 09:16:09;;;;;;;62.78;31.67;;;1.80;99.90;;;;;;5042388;28;20091;-74
2021/01/31 09:18:50;;;;;;;55.15;29.58;;;1.80;99.90;;;;;;5036935;28;20083;-75
2021/01/31 09:21:43;;;;;;;54.22;30.35;;;1.90;99.90;;;;;;5037736;28;20121;-74
2021/01/31 09:24:16;;;;;;;49.28;28.25;;;1.90;99.90;;;;;;5026810;28;20050;-74
2021/01/31 09:26:51;;;;;;;51.92;31.35;;;2.00;99.90;;;;;;5033925;28;20079;-74
2021/01/31 09:29:24;;;;;;;47.45;27.13;;;2.00;99.90;;;;;;5041514;28;20115;-75
2021/01/31 09:32:21;;;;;;;44.70;27.10;;;2.00;99.90;;;;;;5043772;28;20586;-75
2021/01/31 09:34:49;;;;;;;45.60;27.10;;;2.00;99.90;;;;;;5038852;28;20615;-75
2021/01/31 09:37:28;;;;;;;45.80;27.10;;;2.00;99.90;;;;;;5038144;28;20741;-75
2021/01/31 09:40:07;;;;;;;42.78;27.35;;;2.10;99.90;;;;;;5041886;28;20045;-76
2021/01/31 09:42:37;;;;;;;42.40;26.20;;;2.10;99.90;;;;;;5037351;28;20465;-74
2021/01/31 09:45:24;;;;;;;38.33;25.48;;;2.00;99.90;;;;;;5034433;28;20118;-74
2021/01/31 09:47:52;;;;;;;539.53;233.23;;;2.00;99.90;;;;;;5029384;28;20119;-74
2021/01/31 09:50:21;;;;;;;111.00;60.80;;;2.00;99.90;;;;;;5032620;28;20046;-75
2021/01/31 09:52:55;;;;;;;303.55;165.73;;;2.00;99.90;;;;;;5036248;28;20264;-81
2021/01/31 09:55:44;;;;;;;270.67;117.95;;;2.00;99.90;;;;;;5030911;28;20037;-77
2021/01/31 09:58:17;;;;;;;51.80;31.90;;;2.00;99.90;;;;;;5036619;28;20106;-74
2021/01/31 10:00:49;;;;;;;47.38;29.20;;;2.10;99.90;;;;;;5040138;28;20041;-78
2021/01/31 10:03:37;;;;;;;47.03;29.52;;;2.20;99.90;;;;;;5040195;28;20080;-79
2021/01/31 10:06:11;;;;;;;44.20;27.40;;;2.20;99.90;;;;;;5037420;28;20109;-74
2021/01/31 10:08:48;;;;;;;47.53;28.98;;;2.20;99.90;;;;;;5035096;28;20048;-74
2021/01/31 10:11:33;;;;;;;48.83;31.30;;;2.30;99.90;;;;;;5036046;28;20117;-74
2021/01/31 10:14:00;;;;;;;43.10;28.80;;;2.30;99.90;;;;;;5037429;28;20052;-75
2021/01/31 10:16:32;;;;;;;44.83;29.90;;;2.20;99.90;;;;;;5043072;28;20041;-75
2021/01/31 10:19:13;;;;;;;45.50;28.73;;;2.20;99.90;;;;;;5044625;28;20053;-75
2021/01/31 10:21:54;;;;;;;42.33;27.60;;;2.20;99.90;;;;;;5038808;28;20103;-73
2021/01/31 10:24:34;;;;;;;43.22;26.70;;;2.30;99.90;;;;;;5032815;28;20182;-74
2021/01/31 10:27:18;;;;;;;42.65;28.02;;;2.40;99.90;;;;;;5044027;28;20124;-74
2021/01/31 10:29:44;;;;;;;40.67;27.30;;;2.50;99.90;;;;;;5043847;28;20205;-74
2021/01/31 10:32:36;;;;;;;45.42;28.83;;;2.50;99.90;;;;;;5039834;28;20100;-73
2021/01/31 10:35:27;;;;;;;40.55;27.35;;;2.60;99.90;;;;;;5030130;28;20389;-74
2021/01/31 10:37:57;;;;;;;46.45;28.38;;;2.70;99.90;;;;;;5033611;28;20049;-74
2021/01/31 10:40:26;;;;;;;41.90;27.33;;;2.80;99.90;;;;;;5033913;28;20167;-75
2021/01/31 10:43:12;;;;;;;41.20;26.90;;;2.80;99.90;;;;;;5035572;28;20071;-74
2021/01/31 10:45:41;;;;;;;36.33;24.27;;;2.90;99.90;;;;;;5034815;28;20060;-74
2021/01/31 10:48:07;;;;;;;38.63;25.20;;;3.00;99.90;;;;;;5035879;28;20175;-74
2021/01/31 10:50:36;;;;;;;33.63;23.05;;;3.00;99.90;;;;;;5035459;28;20413;-74
2021/01/31 10:53:03;;;;;;;37.65;24.17;;;3.00;99.90;;;;;;5035838;28;20104;-74
2021/01/31 10:55:29;;;;;;;38.50;24.77;;;3.00;99.90;;;;;;5035096;28;20110;-74
2021/01/31 10:57:57;;;;;;;38.05;25.77;;;3.00;99.90;;;;;;5030798;28;20447;-75
2021/01/31 11:00:24;;;;;;;31.95;22.17;;;2.90;99.90;;;;;;5035193;28;20555;-75
2021/01/31 11:02:51;;;;;;;32.90;22.77;;;2.90;99.90;;;;;;5031198;28;20499;-75
2021/01/31 11:05:17;;;;;;;33.42;22.85;;;2.80;99.90;;;;;;5035079;28;20049;-75
2021/01/31 11:07:44;;;;;;;35.78;23.38;;;2.80;99.90;;;;;;5035379;28;20045;-75
2021/01/31 11:10:12;;;;;;;35.65;24.23;;;2.90;99.90;;;;;;5031311;28;20468;-74
2021/01/31 11:12:43;;;;;;;36.55;24.83;;;2.80;99.90;;;;;;5034421;28;20049;-75
2021/01/31 11:15:11;;;;;;;36.80;24.20;;;2.80;99.90;;;;;;5044422;28;20053;-75
2021/01/31 11:17:38;;;;;;;44.13;26.98;;;2.70;99.90;;;;;;5053187;28;20045;-75
2021/01/31 11:20:05;;;;;;;45.88;28.23;;;2.80;99.90;;;;;;5045580;28;20094;-76
2021/01/31 11:22:32;;;;;;;41.95;26.63;;;2.90;99.90;;;;;;5043613;28;20049;-76
2021/01/31 11:24:58;;;;;;;42.63;27.60;;;3.00;99.90;;;;;;5045330;28;20072;-76
2021/01/31 11:27:25;;;;;;;41.85;26.52;;;3.00;99.90;;;;;;5041215;28;20230;-76
2021/01/31 11:29:55;;;;;;;37.05;24.88;;;3.10;99.90;;;;;;5045121;28;20571;-75
2021/01/31 11:32:21;;;;;;;39.08;24.85;;;3.10;99.90;;;;;;5046855;28;20103;-76
2021/01/31 11:34:48;;;;;;;37.95;23.88;;;3.10;99.90;;;;;;5055351;28;20041;-76
2021/01/31 11:37:14;;;;;;;37.78;23.88;;;3.10;99.90;;;;;;5043096;28;20045;-75
2021/01/31 11:39:41;;;;;;;34.08;23.92;;;3.00;99.90;;;;;;5042832;28;20473;-76
2021/01/31 11:42:10;;;;;;;35.92;24.48;;;3.20;99.90;;;;;;5028495;28;20110;-76
2021/01/31 11:44:37;;;;;;;37.78;23.40;;;3.20;99.90;;;;;;5041885;28;20052;-76
2021/01/31 11:47:03;;;;;;;35.72;26.02;;;3.20;99.90;;;;;;5050933;28;20446;-76
2021/01/31 11:49:30;;;;;;;35.88;24.25;;;3.20;99.90;;;;;;5071388;28;20126;-76
2021/01/31 11:51:56;;;;;;;34.50;24.15;;;3.20;99.90;;;;;;5043291;28;20140;-76
2021/01/31 11:54:23;;;;;;;30.23;21.55;;;3.30;99.90;;;;;;5043453;28;20055;-76
2021/01/31 11:56:52;;;;;;;50.55;29.02;;;3.30;99.90;;;;;;5049591;28;20507;-77
2021/01/31 11:59:21;;;;;;;38.10;24.30;;;3.30;99.90;;;;;;5038517;28;20049;-77
2021/01/31 12:01:50;;;;;;;36.47;25.13;;;3.30;99.90;;;;;;5025287;28;20055;-76
2021/01/31 12:04:17;;;;;;;37.17;24.98;;;3.40;99.90;;;;;;5041576;28;20099;-77
2021/01/31 12:06:44;;;;;;;36.70;24.35;;;3.50;99.90;;;;;;5054150;28;20546;-76
2021/01/31 12:09:10;;;;;;;35.25;24.17;;;3.50;99.90;;;;;;5026992;28;20049;-76
2021/01/31 12:11:36;;;;;;;39.10;26.17;;;3.40;99.90;;;;;;5026552;28;20041;-76
2021/01/31 12:14:05;;;;;;;39.88;26.25;;;3.40;99.90;;;;;;5028807;28;20152;-76
2021/01/31 12:16:32;;;;;;;42.72;28.70;;;3.30;99.90;;;;;;5040542;28;20053;-77
2021/01/31 12:19:03;;;;;;;42.42;27.15;;;3.30;99.90;;;;;;5042758;28;20049;-75
2021/01/31 12:21:29;;;;;;;43.08;26.83;;;3.30;99.90;;;;;;5023812;28;20053;-76
2021/01/31 12:23:56;;;;;;;44.35;28.00;;;3.40;99.90;;;;;;5022587;28;20587;-76
2021/01/31 12:26:25;;;;;;;40.97;27.23;;;3.40;99.90;;;;;;5028099;28;20208;-76
2021/01/31 12:28:54;;;;;;;44.80;27.92;;;3.40;99.90;;;;;;5040796;28;20048;-76
2021/01/31 12:31:21;;;;;;;46.55;28.13;;;3.20;99.90;;;;;;5040963;28;20071;-77
2021/01/31 12:33:50;;;;;;;47.13;29.23;;;3.20;99.90;;;;;;5042961;28;20052;-77
2021/01/31 12:36:17;;;;;;;41.08;26.77;;;3.10;99.90;;;;;;5041655;28;20048;-76
2021/01/31 12:38:43;;;;;;;49.30;29.90;;;3.10;99.90;;;;;;5051878;28;20055;-76
2021/01/31 12:41:12;;;;;;;50.30;29.52;;;3.10;99.90;;;;;;5044924;28;20408;-77
2021/01/31 12:43:39;;;;;;;44.03;27.10;;;3.10;99.90;;;;;;5038889;28;20059;-76
2021/01/31 12:46:25;;;;;;;50.25;28.40;;;3.00;99.90;;;;;;5038598;28;20092;-76
2021/01/31 12:48:56;;;;;;;50.20;29.67;;;3.00;99.90;;;;;;5043043;28;20055;-76
2021/01/31 12:51:29;;;;;;;48.38;29.60;;;3.00;99.90;;;;;;5031807;28;20061;-73
2021/01/31 12:53:57;;;;;;;52.30;30.67;;;3.00;99.90;;;;;;5036805;28;20119;-75
2021/01/31 12:56:32;;;;;;;60.30;32.92;;;3.00;99.90;;;;;;5027439;28;20053;-75
2021/01/31 12:58:59;;;;;;;55.25;31.63;;;3.10;99.90;;;;;;5043038;28;20056;-74
2021/01/31 13:01:26;;;;;;;55.55;33.67;;;3.10;99.90;;;;;;5034254;28;20042;-81
2021/01/31 13:03:55;;;;;;;53.47;28.80;;;3.10;99.90;;;;;;5043864;28;20067;-77
2021/01/31 13:06:27;;;;;;;54.03;30.95;;;3.10;99.90;;;;;;5044360;28;20114;-78
2021/01/31 13:08:53;;;;;;;52.72;30.92;;;3.20;99.90;;;;;;5042307;28;20103;-75